sensor_id;sensor_type;location;lat;lon;timestamp;temperature;humidity
29575;DHT22;16507;51.046;6.406;2022-09-09T00:19:39;14.00;99.90
29575;DHT22;16507;51.046;6.406;2022-09-09T00:23:42;14.10;99.90
29575;DHT22;16507;51.046;6.406;2022-09-09T00:29:12;14.10;99.90
29575;DHT22;16507;51.046;6.406;2022-09-09T00:32:07;14.20;99.90
29575;DHT22;16507;51.046;6.406;2022-09-09T00:35:35;14.30;99.90
29575;DHT22;16507;51.046;6.406;2022-09-09T00:39:02;14.30;99.90
29575;DHT22;16507;51.046;6.406;2022-09-09T00:42:23;14.40;99.90
29575;DHT22;16507;51.046;6.406;2022-09-09T00:52:56;14.40;99.90
29575;DHT22;16507;51.046;6.406;2022-09-09T00:55:49;14.30;99.90
29575;DHT22;16507;51.046;6.406;2022-09-09T00:59:24;14.20;99.90
29575;DHT22;16507;51.046;6.406;2022-09-09T01:02:29;14.20;99.90
29575;DHT22;16507;51.046;6.406;2022-09-09T01:05:27;14.10;99.90
29575;DHT22;16507;51.046;6.406;2022-09-09T01:08:28;14.10;99.90
29575;DHT22;16507;51.046;6.406;2022-09-09T01:29:22;14.00;99.90
29575;DHT22;16507;51.046;6.406;2022-09-09T01:38:39;14.10;99.90
29575;DHT22;16507;51.046;6.406;2022-09-09T01:41:40;14.20;99.90
29575;DHT22;16507;51.046;6.406;2022-09-09T01:44:10;14.20;99.90
29575;DHT22;16507;51.046;6.406;2022-09-09T01:46:38;14.20;99.90
29575;DHT22;16507;51.046;6.406;2022-09-09T01:49:13;14.20;99.90
29575;DHT22;16507;51.046;6.406;2022-09-09T01:55:28;14.20;99.90
29575;DHT22;16507;51.046;6.406;2022-09-09T02:06:05;14.30;99.90
29575;DHT22;16507;51.046;6.406;2022-09-09T02:09:15;14.30;99.90
29575;DHT22;16507;51.046;6.406;2022-09-09T02:16:28;14.40;99.90
29575;DHT22;16507;51.046;6.406;2022-09-09T02:25:32;14.50;99.90
29575;DHT22;16507;51.046;6.406;2022-09-09T02:27:59;14.50;99.90
29575;DHT22;16507;51.046;6.406;2022-09-09T02:30:29;14.60;99.90
29575;DHT22;16507;51.046;6.406;2022-09-09T02:33:14;14.60;99.90
29575;DHT22;16507;51.046;6.406;2022-09-09T02:35:56;14.70;99.90
29575;DHT22;16507;51.046;6.406;2022-09-09T02:38:54;14.70;99.90
29575;DHT22;16507;51.046;6.406;2022-09-09T02:41:37;14.70;99.90
29575;DHT22;16507;51.046;6.406;2022-09-09T02:47:35;14.80;99.90
29575;DHT22;16507;51.046;6.406;2022-09-09T02:50:51;14.80;99.90
29575;DHT22;16507;51.046;6.406;2022-09-09T02:57:20;14.80;99.90
29575;DHT22;16507;51.046;6.406;2022-09-09T02:59:59;14.80;99.90
29575;DHT22;16507;51.046;6.406;2022-09-09T03:05:35;14.80;99.90
29575;DHT22;16507;51.046;6.406;2022-09-09T03:08:10;14.80;99.90
29575;DHT22;16507;51.046;6.406;2022-09-09T03:10:58;14.80;99.90
29575;DHT22;16507;51.046;6.406;2022-09-09T03:13:28;14.80;99.90
29575;DHT22;16507;51.046;6.406;2022-09-09T03:15:55;14.80;99.90
29575;DHT22;16507;51.046;6.406;2022-09-09T03:18:22;14.70;99.90
29575;DHT22;16507;51.046;6.406;2022-09-09T03:20:48;14.80;99.90
29575;DHT22;16507;51.046;6.406;2022-09-09T03:23:16;14.80;99.90
29575;DHT22;16507;51.046;6.406;2022-09-09T03:25:50;14.80;99.90
29575;DHT22;16507;51.046;6.406;2022-09-09T03:28:17;14.90;99.90
29575;DHT22;16507;51.046;6.406;2022-09-09T03:30:44;14.90;99.90
29575;DHT22;16507;51.046;6.406;2022-09-09T03:33:09;14.90;99.90
29575;DHT22;16507;51.046;6.406;2022-09-09T03:35:35;15.00;99.90
29575;DHT22;16507;51.046;6.406;2022-09-09T03:38:01;15.00;99.90
29575;DHT22;16507;51.046;6.406;2022-09-09T03:40:28;15.00;99.90
29575;DHT22;16507;51.046;6.406;2022-09-09T03:42:59;15.00;99.90
29575;DHT22;16507;51.046;6.406;2022-09-09T03:45:28;15.00;99.90
29575;DHT22;16507;51.046;6.406;2022-09-09T03:47:56;15.00;99.90
29575;DHT22;16507;51.046;6.406;2022-09-09T03:50:59;14.90;99.90
29575;DHT22;16507;51.046;6.406;2022-09-09T03:53:40;15.00;99.90
29575;DHT22;16507;51.046;6.406;2022-09-09T03:56:38;15.00;99.90
29575;DHT22;16507;51.046;6.406;2022-09-09T03:59:26;15.00;99.90
29575;DHT22;16507;51.046;6.406;2022-09-09T04:01:54;15.00;99.90
29575;DHT22;16507;51.046;6.406;2022-09-09T04:04:26;15.00;99.90
29575;DHT22;16507;51.046;6.406;2022-09-09T04:10:08;15.10;99.90
29575;DHT22;16507;51.046;6.406;2022-09-09T04:12:41;15.20;99.90
29575;DHT22;16507;51.046;6.406;2022-09-09T04:15:27;15.20;99.90
29575;DHT22;16507;51.046;6.406;2022-09-09T04:18:15;15.30;99.90
29575;DHT22;16507;51.046;6.406;2022-09-09T04:21:22;15.30;99.90
29575;DHT22;16507;51.046;6.406;2022-09-09T04:24:17;15.40;99.90
29575;DHT22;16507;51.046;6.406;2022-09-09T04:27:28;15.40;99.90
29575;DHT22;16507;51.046;6.406;2022-09-09T04:30:21;15.40;99.90
29575;DHT22;16507;51.046;6.406;2022-09-09T04:32:58;15.40;99.90
29575;DHT22;16507;51.046;6.406;2022-09-09T04:35:54;15.40;99.90
29575;DHT22;16507;51.046;6.406;2022-09-09T04:38:34;15.50;99.90
29575;DHT22;16507;51.046;6.406;2022-09-09T04:40:59;15.40;99.90
29575;DHT22;16507;51.046;6.406;2022-09-09T04:43:36;15.50;99.90
29575;DHT22;16507;51.046;6.406;2022-09-09T04:46:26;15.50;99.90
29575;DHT22;16507;51.046;6.406;2022-09-09T04:49:24;15.40;99.90
29575;DHT22;16507;51.046;6.406;2022-09-09T04:51:59;15.40;99.90
29575;DHT22;16507;51.046;6.406;2022-09-09T04:55:34;15.40;99.90
29575;DHT22;16507;51.046;6.406;2022-09-09T04:58:46;15.40;99.90
29575;DHT22;16507;51.046;6.406;2022-09-09T05:01:40;15.40;99.90
29575;DHT22;16507;51.046;6.406;2022-09-09T05:04:49;15.40;99.90
29575;DHT22;16507;51.046;6.406;2022-09-09T05:08:05;15.50;99.90
29575;DHT22;16507;51.046;6.406;2022-09-09T05:11:29;15.40;99.90
29575;DHT22;16507;51.046;6.406;2022-09-09T05:15:02;15.50;99.90
29575;DHT22;16507;51.046;6.406;2022-09-09T05:18:41;15.40;99.90
29575;DHT22;16507;51.046;6.406;2022-09-09T05:21:37;15.50;99.90
29575;DHT22;16507;51.046;6.406;2022-09-09T05:24:45;15.50;99.90
29575;DHT22;16507;51.046;6.406;2022-09-09T05:27:17;15.50;99.90
29575;DHT22;16507;51.046;6.406;2022-09-09T05:29:51;15.50;99.90
29575;DHT22;16507;51.046;6.406;2022-09-09T05:32:55;15.50;99.90
29575;DHT22;16507;51.046;6.406;2022-09-09T05:35:55;15.50;99.90
29575;DHT22;16507;51.046;6.406;2022-09-09T05:38:45;15.50;99.90
29575;DHT22;16507;51.046;6.406;2022-09-09T05:41:24;15.60;99.90
29575;DHT22;16507;51.046;6.406;2022-09-09T05:43:56;15.60;99.90
29575;DHT22;16507;51.046;6.406;2022-09-09T05:46:40;15.60;99.90
29575;DHT22;16507;51.046;6.406;2022-09-09T05:52:47;15.60;99.90
29575;DHT22;16507;51.046;6.406;2022-09-09T05:55:44;15.60;99.90
29575;DHT22;16507;51.046;6.406;2022-09-09T05:58:39;15.60;99.90
29575;DHT22;16507;51.046;6.406;2022-09-09T06:01:17;15.70;99.90
29575;DHT22;16507;51.046;6.406;2022-09-09T06:04:09;15.70;99.90
29575;DHT22;16507;51.046;6.406;2022-09-09T06:06:41;15.70;99.90
29575;DHT22;16507;51.046;6.406;2022-09-09T06:12:23;15.80;99.90
29575;DHT22;16507;51.046;6.406;2022-09-09T06:15:03;15.70;99.90
29575;DHT22;16507;51.046;6.406;2022-09-09T06:17:38;15.70;99.90
29575;DHT22;16507;51.046;6.406;2022-09-09T06:20:14;15.80;99.90
29575;DHT22;16507;51.046;6.406;2022-09-09T06:23:06;16.00;99.90
29575;DHT22;16507;51.046;6.406;2022-09-09T06:25:42;16.10;99.90
29575;DHT22;16507;51.046;6.406;2022-09-09T06:28:29;16.40;99.90
29575;DHT22;16507;51.046;6.406;2022-09-09T06:31:13;16.50;99.90
29575;DHT22;16507;51.046;6.406;2022-09-09T06:34:15;16.50;99.90
29575;DHT22;16507;51.046;6.406;2022-09-09T06:37:06;16.50;99.90
29575;DHT22;16507;51.046;6.406;2022-09-09T06:39:58;16.40;99.90
29575;DHT22;16507;51.046;6.406;2022-09-09T06:43:25;16.40;99.90
29575;DHT22;16507;51.046;6.406;2022-09-09T06:46:11;16.30;99.90
29575;DHT22;16507;51.046;6.406;2022-09-09T06:52:40;16.20;99.90
29575;DHT22;16507;51.046;6.406;2022-09-09T06:56:20;16.20;99.90
29575;DHT22;16507;51.046;6.406;2022-09-09T06:59:22;16.30;99.90
29575;DHT22;16507;51.046;6.406;2022-09-09T07:05:56;16.40;99.90
29575;DHT22;16507;51.046;6.406;2022-09-09T07:16:26;16.60;99.90
29575;DHT22;16507;51.046;6.406;2022-09-09T07:23:06;17.20;99.90
29575;DHT22;16507;51.046;6.406;2022-09-09T07:26:34;17.80;99.90
29575;DHT22;16507;51.046;6.406;2022-09-09T07:36:28;17.90;99.90
29575;DHT22;16507;51.046;6.406;2022-09-09T08:02:35;18.10;99.90
29575;DHT22;16507;51.046;6.406;2022-09-09T09:12:48;18.40;99.90
29575;DHT22;16507;51.046;6.406;2022-09-09T09:19:15;18.80;99.90
29575;DHT22;16507;51.046;6.406;2022-09-09T09:22:50;19.30;99.90
29575;DHT22;16507;51.046;6.406;2022-09-09T09:26:30;19.40;99.90
29575;DHT22;16507;51.046;6.406;2022-09-09T09:29:56;19.40;99.90
29575;DHT22;16507;51.046;6.406;2022-09-09T09:46:28;19.70;99.90
29575;DHT22;16507;51.046;6.406;2022-09-09T09:52:36;19.80;99.90
29575;DHT22;16507;51.046;6.406;2022-09-09T10:02:39;20.00;99.90
29575;DHT22;16507;51.046;6.406;2022-09-09T10:13:05;20.20;99.90
29575;DHT22;16507;51.046;6.406;2022-09-09T10:22:51;19.80;99.90
29575;DHT22;16507;51.046;6.406;2022-09-09T10:26:31;19.30;99.90
29575;DHT22;16507;51.046;6.406;2022-09-09T10:36:27;19.50;99.90
29575;DHT22;16507;51.046;6.406;2022-09-09T10:55:45;19.50;99.90
29575;DHT22;16507;51.046;6.406;2022-09-09T11:16:05;19.50;99.90
29575;DHT22;16507;51.046;6.406;2022-09-09T11:25:51;19.90;99.90
29575;DHT22;16507;51.046;6.406;2022-09-09T11:38:47;20.30;99.90
29575;DHT22;16507;51.046;6.406;2022-09-09T11:42:31;20.50;99.90
29575;DHT22;16507;51.046;6.406;2022-09-09T11:45:27;20.70;99.90
29575;DHT22;16507;51.046;6.406;2022-09-09T11:53:35;21.00;99.90
29575;DHT22;16507;51.046;6.406;2022-09-09T12:00:05;20.50;99.90
29575;DHT22;16507;51.046;6.406;2022-09-09T12:33:45;19.00;99.90
29575;DHT22;16507;51.046;6.406;2022-09-09T12:44:18;19.40;99.90
29575;DHT22;16507;51.046;6.406;2022-09-09T13:12:21;19.50;99.90
29575;DHT22;16507;51.046;6.406;2022-09-09T13:15:23;19.00;99.90
29575;DHT22;16507;51.046;6.406;2022-09-09T13:18:23;18.20;99.90
29575;DHT22;16507;51.046;6.406;2022-09-09T13:28:05;17.40;99.90
29575;DHT22;16507;51.046;6.406;2022-09-09T13:31:32;19.00;99.90
29575;DHT22;16507;51.046;6.406;2022-09-09T13:34:35;19.60;99.90
29575;DHT22;16507;51.046;6.406;2022-09-09T13:37:39;20.30;99.90
29575;DHT22;16507;51.046;6.406;2022-09-09T14:01:42;20.40;99.90
29575;DHT22;16507;51.046;6.406;2022-09-09T14:32:04;15.30;99.90
29575;DHT22;16507;51.046;6.406;2022-09-09T14:35:30;15.20;99.90
29575;DHT22;16507;51.046;6.406;2022-09-09T14:38:50;15.70;99.90
29575;DHT22;16507;51.046;6.406;2022-09-09T14:41:47;16.20;99.90
29575;DHT22;16507;51.046;6.406;2022-09-09T14:49:01;16.50;99.90
29575;DHT22;16507;51.046;6.406;2022-09-09T14:52:31;16.90;99.90
29575;DHT22;16507;51.046;6.406;2022-09-09T14:55:05;17.40;99.90
29575;DHT22;16507;51.046;6.406;2022-09-09T14:57:55;17.60;99.90
29575;DHT22;16507;51.046;6.406;2022-09-09T15:00:29;18.00;99.90
29575;DHT22;16507;51.046;6.406;2022-09-09T15:03:12;18.10;99.90
29575;DHT22;16507;51.046;6.406;2022-09-09T15:06:04;18.10;99.90
29575;DHT22;16507;51.046;6.406;2022-09-09T15:08:47;18.00;99.90
29575;DHT22;16507;51.046;6.406;2022-09-09T15:11:18;17.90;99.90
29575;DHT22;16507;51.046;6.406;2022-09-09T15:13:54;17.90;99.90
29575;DHT22;16507;51.046;6.406;2022-09-09T15:16:59;18.00;99.90
29575;DHT22;16507;51.046;6.406;2022-09-09T15:19:47;18.00;99.90
29575;DHT22;16507;51.046;6.406;2022-09-09T15:23:34;18.00;99.90
29575;DHT22;16507;51.046;6.406;2022-09-09T15:29:53;18.10;99.90
29575;DHT22;16507;51.046;6.406;2022-09-09T15:32:38;18.30;99.90
29575;DHT22;16507;51.046;6.406;2022-09-09T15:35:31;18.80;99.90
29575;DHT22;16507;51.046;6.406;2022-09-09T15:38:22;18.90;99.90
29575;DHT22;16507;51.046;6.406;2022-09-09T15:57:40;17.60;99.90
29575;DHT22;16507;51.046;6.406;2022-09-09T16:00:33;17.50;99.90
29575;DHT22;16507;51.046;6.406;2022-09-09T16:02:59;17.40;99.90
29575;DHT22;16507;51.046;6.406;2022-09-09T16:06:01;17.40;99.90
29575;DHT22;16507;51.046;6.406;2022-09-09T16:08:51;17.00;99.90
29575;DHT22;16507;51.046;6.406;2022-09-09T16:11:49;17.00;99.90
29575;DHT22;16507;51.046;6.406;2022-09-09T16:14:56;17.60;99.90
29575;DHT22;16507;51.046;6.406;2022-09-09T16:18:34;18.50;99.90
29575;DHT22;16507;51.046;6.406;2022-09-09T16:21:46;18.70;99.90
29575;DHT22;16507;51.046;6.406;2022-09-09T16:25:11;18.80;99.90
29575;DHT22;16507;51.046;6.406;2022-09-09T16:28:47;18.80;99.90
29575;DHT22;16507;51.046;6.406;2022-09-09T16:32:12;18.80;99.90
29575;DHT22;16507;51.046;6.406;2022-09-09T16:35:29;18.70;99.90
29575;DHT22;16507;51.046;6.406;2022-09-09T16:41:52;18.60;99.90
29575;DHT22;16507;51.046;6.406;2022-09-09T16:44:19;18.50;99.90
29575;DHT22;16507;51.046;6.406;2022-09-09T17:00:13;18.10;99.90
29575;DHT22;16507;51.046;6.406;2022-09-09T17:06:52;17.90;99.90
29575;DHT22;16507;51.046;6.406;2022-09-09T17:10:08;17.80;99.90
29575;DHT22;16507;51.046;6.406;2022-09-09T17:13:10;17.70;99.90
29575;DHT22;16507;51.046;6.406;2022-09-09T17:16:04;17.60;99.90
29575;DHT22;16507;51.046;6.406;2022-09-09T17:19:10;17.50;99.90
29575;DHT22;16507;51.046;6.406;2022-09-09T17:21:58;17.40;99.90
29575;DHT22;16507;51.046;6.406;2022-09-09T17:24:36;17.30;99.90
29575;DHT22;16507;51.046;6.406;2022-09-09T17:27:25;17.20;99.90
29575;DHT22;16507;51.046;6.406;2022-09-09T17:29:57;17.20;99.90
29575;DHT22;16507;51.046;6.406;2022-09-09T17:32:32;17.10;99.90
29575;DHT22;16507;51.046;6.406;2022-09-09T17:38:29;17.10;99.90
29575;DHT22;16507;51.046;6.406;2022-09-09T17:41:17;17.10;99.90
29575;DHT22;16507;51.046;6.406;2022-09-09T17:43:44;17.10;99.90
29575;DHT22;16507;51.046;6.406;2022-09-09T17:46:25;17.00;99.90
29575;DHT22;16507;51.046;6.406;2022-09-09T17:49:03;17.00;99.90
29575;DHT22;16507;51.046;6.406;2022-09-09T17:51:34;17.00;99.90
29575;DHT22;16507;51.046;6.406;2022-09-09T17:54:24;17.00;99.90
29575;DHT22;16507;51.046;6.406;2022-09-09T17:56:51;17.00;99.90
29575;DHT22;16507;51.046;6.406;2022-09-09T17:59:24;17.00;99.90
29575;DHT22;16507;51.046;6.406;2022-09-09T18:01:57;16.90;99.90
29575;DHT22;16507;51.046;6.406;2022-09-09T18:04:40;16.90;99.90
29575;DHT22;16507;51.046;6.406;2022-09-09T18:07:08;16.90;99.90
29575;DHT22;16507;51.046;6.406;2022-09-09T18:09:44;16.80;99.90
29575;DHT22;16507;51.046;6.406;2022-09-09T18:12:15;16.80;99.90
29575;DHT22;16507;51.046;6.406;2022-09-09T18:14:45;16.80;99.90
29575;DHT22;16507;51.046;6.406;2022-09-09T18:17:12;16.70;99.90
29575;DHT22;16507;51.046;6.406;2022-09-09T18:19:43;16.70;99.90
29575;DHT22;16507;51.046;6.406;2022-09-09T18:22:10;16.60;99.90
29575;DHT22;16507;51.046;6.406;2022-09-09T18:24:36;16.60;99.90
29575;DHT22;16507;51.046;6.406;2022-09-09T18:27:07;16.50;99.90
29575;DHT22;16507;51.046;6.406;2022-09-09T18:36:10;16.30;99.90
29575;DHT22;16507;51.046;6.406;2022-09-09T18:38:47;16.30;99.90
29575;DHT22;16507;51.046;6.406;2022-09-09T18:41:27;16.20;99.90
29575;DHT22;16507;51.046;6.406;2022-09-09T18:48:11;16.20;99.90
29575;DHT22;16507;51.046;6.406;2022-09-09T18:51:01;16.20;99.90
29575;DHT22;16507;51.046;6.406;2022-09-09T18:53:52;16.20;99.90
29575;DHT22;16507;51.046;6.406;2022-09-09T18:57:02;16.20;99.90
29575;DHT22;16507;51.046;6.406;2022-09-09T18:59:56;16.20;99.90
29575;DHT22;16507;51.046;6.406;2022-09-09T19:02:40;16.10;99.90
29575;DHT22;16507;51.046;6.406;2022-09-09T19:05:13;16.10;99.90
29575;DHT22;16507;51.046;6.406;2022-09-09T19:08:10;16.10;99.90
29575;DHT22;16507;51.046;6.406;2022-09-09T19:10:47;16.20;99.90
29575;DHT22;16507;51.046;6.406;2022-09-09T19:13:23;16.20;99.90
29575;DHT22;16507;51.046;6.406;2022-09-09T19:15:49;16.20;99.90
29575;DHT22;16507;51.046;6.406;2022-09-09T19:18:32;16.20;99.90
29575;DHT22;16507;51.046;6.406;2022-09-09T19:21:19;16.20;99.90
29575;DHT22;16507;51.046;6.406;2022-09-09T19:26:27;16.20;99.90
29575;DHT22;16507;51.046;6.406;2022-09-09T19:29:12;16.10;99.90
29575;DHT22;16507;51.046;6.406;2022-09-09T19:31:43;16.10;99.90
29575;DHT22;16507;51.046;6.406;2022-09-09T19:34:09;16.10;99.90
29575;DHT22;16507;51.046;6.406;2022-09-09T19:36:36;16.10;99.90
29575;DHT22;16507;51.046;6.406;2022-09-09T19:39:07;16.10;99.90
29575;DHT22;16507;51.046;6.406;2022-09-09T19:41:36;16.10;99.90
29575;DHT22;16507;51.046;6.406;2022-09-09T19:44:39;16.10;99.90
29575;DHT22;16507;51.046;6.406;2022-09-09T19:47:13;16.10;99.90
29575;DHT22;16507;51.046;6.406;2022-09-09T19:49:49;16.10;99.90
29575;DHT22;16507;51.046;6.406;2022-09-09T19:52:17;16.00;99.90
29575;DHT22;16507;51.046;6.406;2022-09-09T19:54:45;16.00;99.90
29575;DHT22;16507;51.046;6.406;2022-09-09T19:57:12;15.90;99.90
29575;DHT22;16507;51.046;6.406;2022-09-09T19:59:39;16.00;99.90
29575;DHT22;16507;51.046;6.406;2022-09-09T20:02:36;15.90;99.90
29575;DHT22;16507;51.046;6.406;2022-09-09T20:05:04;15.90;99.90
29575;DHT22;16507;51.046;6.406;2022-09-09T20:07:35;15.90;99.90
29575;DHT22;16507;51.046;6.406;2022-09-09T20:10:18;15.90;99.90
29575;DHT22;16507;51.046;6.406;2022-09-09T20:12:45;15.90;99.90
29575;DHT22;16507;51.046;6.406;2022-09-09T20:15:21;15.90;99.90
29575;DHT22;16507;51.046;6.406;2022-09-09T20:17:57;15.90;99.90
29575;DHT22;16507;51.046;6.406;2022-09-09T20:20:38;16.00;99.90
29575;DHT22;16507;51.046;6.406;2022-09-09T20:23:09;16.10;99.90
29575;DHT22;16507;51.046;6.406;2022-09-09T20:25:36;16.10;99.90
29575;DHT22;16507;51.046;6.406;2022-09-09T20:28:13;16.20;99.90
29575;DHT22;16507;51.046;6.406;2022-09-09T20:31:18;16.10;99.90
29575;DHT22;16507;51.046;6.406;2022-09-09T20:34:15;16.10;99.90
29575;DHT22;16507;51.046;6.406;2022-09-09T20:36:51;16.00;99.90
29575;DHT22;16507;51.046;6.406;2022-09-09T20:39:21;15.90;99.90
29575;DHT22;16507;51.046;6.406;2022-09-09T20:41:48;15.90;99.90
29575;DHT22;16507;51.046;6.406;2022-09-09T20:44:39;15.90;99.90
29575;DHT22;16507;51.046;6.406;2022-09-09T20:47:11;15.80;99.90
29575;DHT22;16507;51.046;6.406;2022-09-09T20:49:38;15.80;99.90
29575;DHT22;16507;51.046;6.406;2022-09-09T20:52:07;15.80;99.90
29575;DHT22;16507;51.046;6.406;2022-09-09T20:54:36;15.80;99.90
29575;DHT22;16507;51.046;6.406;2022-09-09T20:57:10;15.70;99.90
29575;DHT22;16507;51.046;6.406;2022-09-09T20:59:38;15.60;99.90
29575;DHT22;16507;51.046;6.406;2022-09-09T21:02:04;15.60;99.90
29575;DHT22;16507;51.046;6.406;2022-09-09T21:04:31;15.60;99.90
29575;DHT22;16507;51.046;6.406;2022-09-09T21:06:58;15.60;99.90
29575;DHT22;16507;51.046;6.406;2022-09-09T21:09:27;15.60;99.90
29575;DHT22;16507;51.046;6.406;2022-09-09T21:11:56;15.60;99.90
29575;DHT22;16507;51.046;6.406;2022-09-09T21:14:24;15.60;99.90
29575;DHT22;16507;51.046;6.406;2022-09-09T21:17:10;15.70;99.90
29575;DHT22;16507;51.046;6.406;2022-09-09T21:19:38;15.70;99.90
29575;DHT22;16507;51.046;6.406;2022-09-09T21:22:14;15.70;99.90
29575;DHT22;16507;51.046;6.406;2022-09-09T21:24:43;15.70;99.90
29575;DHT22;16507;51.046;6.406;2022-09-09T21:27:28;15.80;99.90
29575;DHT22;16507;51.046;6.406;2022-09-09T21:30:00;15.80;99.90
29575;DHT22;16507;51.046;6.406;2022-09-09T21:32:31;15.80;99.90
29575;DHT22;16507;51.046;6.406;2022-09-09T21:34:59;15.70;99.90
29575;DHT22;16507;51.046;6.406;2022-09-09T21:37:32;15.70;99.90
29575;DHT22;16507;51.046;6.406;2022-09-09T21:40:05;15.70;99.90
29575;DHT22;16507;51.046;6.406;2022-09-09T21:42:35;15.70;99.90
29575;DHT22;16507;51.046;6.406;2022-09-09T21:45:07;15.70;99.90
29575;DHT22;16507;51.046;6.406;2022-09-09T21:47:35;15.70;99.90
29575;DHT22;16507;51.046;6.406;2022-09-09T21:50:01;15.70;99.90
29575;DHT22;16507;51.046;6.406;2022-09-09T21:52:41;15.70;99.90
29575;DHT22;16507;51.046;6.406;2022-09-09T21:55:07;15.60;99.90
29575;DHT22;16507;51.046;6.406;2022-09-09T21:57:37;15.60;99.90
29575;DHT22;16507;51.046;6.406;2022-09-09T22:00:07;15.60;99.90
29575;DHT22;16507;51.046;6.406;2022-09-09T22:02:54;15.60;99.90
29575;DHT22;16507;51.046;6.406;2022-09-09T22:05:25;15.70;99.90
29575;DHT22;16507;51.046;6.406;2022-09-09T22:07:57;15.70;99.90
29575;DHT22;16507;51.046;6.406;2022-09-09T22:10:23;15.80;99.90
29575;DHT22;16507;51.046;6.406;2022-09-09T22:12:59;15.80;99.90
29575;DHT22;16507;51.046;6.406;2022-09-09T22:15:26;15.80;99.90
29575;DHT22;16507;51.046;6.406;2022-09-09T22:18:24;15.70;99.90
29575;DHT22;16507;51.046;6.406;2022-09-09T22:21:21;15.60;99.90
29575;DHT22;16507;51.046;6.406;2022-09-09T22:24:10;15.60;99.90
29575;DHT22;16507;51.046;6.406;2022-09-09T22:26:39;15.50;99.90
29575;DHT22;16507;51.046;6.406;2022-09-09T22:29:08;15.40;99.90
29575;DHT22;16507;51.046;6.406;2022-09-09T22:32:06;15.30;99.90
29575;DHT22;16507;51.046;6.406;2022-09-09T22:34:38;15.20;99.90
29575;DHT22;16507;51.046;6.406;2022-09-09T22:37:27;15.20;99.90
29575;DHT22;16507;51.046;6.406;2022-09-09T22:40:19;15.10;99.90
29575;DHT22;16507;51.046;6.406;2022-09-09T22:42:48;15.10;99.90
29575;DHT22;16507;51.046;6.406;2022-09-09T22:45:21;15.00;99.90
29575;DHT22;16507;51.046;6.406;2022-09-09T22:47:58;15.00;99.90
29575;DHT22;16507;51.046;6.406;2022-09-09T22:50:33;15.00;99.90
29575;DHT22;16507;51.046;6.406;2022-09-09T22:57:07;14.90;99.90
29575;DHT22;16507;51.046;6.406;2022-09-09T22:59:41;14.90;99.90
29575;DHT22;16507;51.046;6.406;2022-09-09T23:02:29;14.90;99.90
29575;DHT22;16507;51.046;6.406;2022-09-09T23:05:37;14.80;99.90
29575;DHT22;16507;51.046;6.406;2022-09-09T23:08:44;14.70;99.90
29575;DHT22;16507;51.046;6.406;2022-09-09T23:11:35;14.60;99.90
29575;DHT22;16507;51.046;6.406;2022-09-09T23:14:33;14.60;99.90
29575;DHT22;16507;51.046;6.406;2022-09-09T23:17:06;14.60;99.90
29575;DHT22;16507;51.046;6.406;2022-09-09T23:19:34;14.60;99.90
29575;DHT22;16507;51.046;6.406;2022-09-09T23:22:12;14.60;99.90
29575;DHT22;16507;51.046;6.406;2022-09-09T23:24:39;14.60;99.90
29575;DHT22;16507;51.046;6.406;2022-09-09T23:27:05;14.60;99.90
29575;DHT22;16507;51.046;6.406;2022-09-09T23:29:40;14.60;99.90
29575;DHT22;16507;51.046;6.406;2022-09-09T23:32:38;14.50;99.90
29575;DHT22;16507;51.046;6.406;2022-09-09T23:35:33;14.50;99.90
29575;DHT22;16507;51.046;6.406;2022-09-09T23:38:00;14.50;99.90
29575;DHT22;16507;51.046;6.406;2022-09-09T23:40:26;14.50;99.90
29575;DHT22;16507;51.046;6.406;2022-09-09T23:42:53;14.40;99.90
29575;DHT22;16507;51.046;6.406;2022-09-09T23:45:28;14.50;99.90
29575;DHT22;16507;51.046;6.406;2022-09-09T23:48:02;14.50;99.90
29575;DHT22;16507;51.046;6.406;2022-09-09T23:50:29;14.60;99.90
29575;DHT22;16507;51.046;6.406;2022-09-09T23:52:57;14.60;99.90
29575;DHT22;16507;51.046;6.406;2022-09-09T23:55:26;14.60;99.90
29575;DHT22;16507;51.046;6.406;2022-09-09T23:57:58;14.70;99.90
